createdAt,value
2018-11-06T00:00:57.444Z,71.75
2018-11-06T00:05:59.898Z,73.97
2018-11-06T00:11:02.331Z,70.57
2018-11-06T00:16:05.314Z,72.42
2018-11-06T00:21:07.979Z,68.52
2018-11-06T00:26:10.324Z,68.15
2018-11-06T00:31:12.760Z,72.37
2018-11-06T00:36:15.095Z,67.90
2018-11-06T00:41:17.592Z,72.42
2018-11-06T00:46:20.108Z,69.27
2018-11-06T00:51:22.639Z,69.58
2018-11-06T00:56:25.029Z,70.50
2018-11-06T01:01:27.576Z,71.28
2018-11-06T01:06:30.155Z,68.25
2018-11-06T01:11:40.120Z,68.17
2018-11-06T01:16:49.267Z,69.82
2018-11-06T01:21:51.816Z,70.80
2018-11-06T01:26:54.298Z,65.90
2018-11-06T01:31:56.869Z,62.05
2018-11-06T01:36:59.583Z,72.82
2018-11-06T01:42:01.972Z,67.55
2018-11-06T01:47:04.682Z,64.70
2018-11-06T01:52:07.058Z,67.67
2018-11-06T01:57:09.674Z,65.42
2018-11-06T02:02:12.085Z,69.37
2018-11-06T02:07:14.512Z,66.10
2018-11-06T02:12:17.091Z,62.40
2018-11-06T02:17:19.584Z,64.37
2018-11-06T02:22:22.125Z,64.30
2018-11-06T02:27:25.692Z,57.70
2018-11-06T02:32:28.149Z,63.70
2018-11-06T02:37:30.547Z,66.65
2018-11-06T02:42:33.020Z,61.35
2018-11-06T02:47:35.551Z,72.00
2018-11-06T02:52:37.971Z,63.92
2018-11-06T02:57:40.914Z,80.03
2018-11-06T03:02:43.889Z,87.27
2018-11-06T03:07:46.380Z,96.53
2018-11-06T03:12:48.767Z,98.55
2018-11-06T03:17:51.135Z,117.62
2018-11-06T03:22:53.613Z,76.07
2018-11-06T03:27:56.019Z,71.47
2018-11-06T03:32:58.456Z,77.50
2018-11-06T03:38:01.351Z,71.45
2018-11-06T03:43:03.811Z,65.15
2018-11-06T03:48:06.208Z,69.70
2018-11-06T03:53:08.618Z,68.50
2018-11-06T03:58:11.032Z,63.73
2018-11-06T04:03:13.459Z,69.03
2018-11-06T04:08:15.910Z,65.72
2018-11-06T04:13:18.261Z,63.33
2018-11-06T04:18:20.700Z,86.15
2018-11-06T04:23:23.071Z,82.37
2018-11-06T04:28:25.418Z,65.37
2018-11-06T04:33:27.818Z,81.97
2018-11-06T04:38:30.229Z,66.00
2018-11-06T04:43:32.615Z,109.45
2018-11-06T04:48:34.948Z,167.10
2018-11-06T04:53:37.408Z,84.42
2018-11-06T04:58:39.780Z,79.95
2018-11-06T05:03:46.532Z,60.73
2018-11-06T05:08:48.896Z,61.60
2018-11-06T05:13:51.350Z,62.25
2018-11-06T05:18:53.674Z,48.23
2018-11-06T05:23:56.090Z,53.73
2018-11-06T05:28:58.490Z,64.07
2018-11-06T05:34:00.891Z,59.20
2018-11-06T05:39:08.297Z,49.30
2018-11-06T05:44:11.760Z,47.80
2018-11-06T05:49:14.482Z,41.42
2018-11-06T05:54:17.416Z,41.68
2018-11-06T05:59:19.830Z,35.58
2018-11-06T06:04:22.376Z,41.25
2018-11-06T06:09:24.985Z,37.60
2018-11-06T06:14:27.424Z,36.53
2018-11-06T06:19:31.037Z,33.78
2018-11-06T06:24:33.544Z,36.17
2018-11-06T06:29:35.988Z,38.80
2018-11-06T06:34:38.811Z,35.58
2018-11-06T06:39:41.118Z,38.25
2018-11-06T06:44:43.471Z,37.13
2018-11-06T06:49:45.832Z,34.40
2018-11-06T06:54:48.261Z,41.90
2018-11-06T06:59:50.646Z,38.55
2018-11-06T07:04:53.099Z,34.60
2018-11-06T07:09:55.491Z,40.63
2018-11-06T07:14:57.947Z,39.48
2018-11-06T07:20:00.380Z,37.58
2018-11-06T07:25:02.756Z,39.48
2018-11-06T07:30:07.665Z,38.88
2018-11-06T07:35:10.736Z,32.75
2018-11-06T07:40:14.387Z,33.20
2018-11-06T07:45:18.214Z,35.43
2018-11-06T07:50:20.639Z,34.78
2018-11-06T07:55:23.053Z,34.60
2018-11-06T08:00:26.109Z,31.30
2018-11-06T08:05:28.529Z,33.45
2018-11-06T08:10:30.892Z,29.67
2018-11-06T08:15:33.213Z,31.45
2018-11-06T08:20:35.592Z,30.92
2018-11-06T08:25:37.927Z,34.15
2018-11-06T08:30:40.340Z,32.80
2018-11-06T08:35:42.670Z,35.52
2018-11-06T08:40:45.821Z,41.25
2018-11-06T08:45:48.283Z,34.92
2018-11-06T08:50:50.681Z,38.98
2018-11-06T08:55:53.078Z,38.38
2018-11-06T09:00:55.487Z,35.90
2018-11-06T09:05:57.938Z,35.08
2018-11-06T09:11:00.300Z,37.50
2018-11-06T09:16:02.660Z,34.60
2018-11-06T09:21:05.126Z,35.52
2018-11-06T09:26:07.510Z,39.15
2018-11-06T09:31:10.761Z,39.15
2018-11-06T09:36:13.143Z,40.45
2018-11-06T09:41:15.560Z,36.05
2018-11-06T09:46:17.926Z,40.88
2018-11-06T09:51:20.338Z,37.23
2018-11-06T09:56:22.707Z,35.03
2018-11-06T10:01:25.028Z,37.80
2018-11-06T10:06:28.497Z,36.60
2018-11-06T10:11:30.847Z,33.88
2018-11-06T10:16:33.408Z,31.68
2018-11-06T10:21:35.865Z,37.95
2018-11-06T10:26:38.283Z,33.23
2018-11-06T10:31:40.764Z,35.68
2018-11-06T10:36:43.323Z,36.30
2018-11-06T10:41:45.709Z,34.73
2018-11-06T10:46:48.503Z,34.00
2018-11-06T10:51:50.925Z,35.03
2018-11-06T10:56:53.319Z,37.17
2018-11-06T11:02:01.351Z,34.53
2018-11-06T11:07:03.812Z,33.92
2018-11-06T11:12:06.179Z,34.78
2018-11-06T11:17:08.650Z,34.13
2018-11-06T11:22:11.251Z,34.85
2018-11-06T11:27:13.671Z,36.17
2018-11-06T11:32:16.443Z,37.98
2018-11-06T11:37:18.875Z,34.90
2018-11-06T11:42:21.295Z,34.13
2018-11-06T11:47:23.719Z,33.50
2018-11-06T11:52:26.170Z,38.05
2018-11-06T11:57:28.587Z,33.30
2018-11-06T12:02:31.013Z,38.83
2018-11-06T12:07:33.404Z,38.25
2018-11-06T12:12:35.839Z,35.70
2018-11-06T12:17:38.553Z,38.20
2018-11-06T12:22:41.333Z,32.58
2018-11-06T12:27:43.988Z,37.65
2018-11-06T12:32:46.689Z,38.83
2018-11-06T12:37:49.067Z,40.15
2018-11-06T12:42:51.566Z,37.70
2018-11-06T12:47:54.000Z,38.53
2018-11-06T12:52:56.504Z,38.63
2018-11-06T12:57:58.860Z,42.50
2018-11-06T13:03:01.220Z,39.38
2018-11-06T13:08:03.659Z,38.33
2018-11-06T13:13:06.112Z,34.58
2018-11-06T13:18:08.499Z,35.65
2018-11-06T13:23:10.832Z,33.92
2018-11-06T13:28:13.220Z,35.20
2018-11-06T13:33:15.715Z,32.63
2018-11-06T13:38:18.147Z,37.63
2018-11-06T13:43:20.639Z,33.98
2018-11-06T13:48:22.915Z,32.65
2018-11-06T13:53:25.359Z,32.63
2018-11-06T13:58:27.743Z,31.68
2018-11-06T14:03:30.123Z,31.77
2018-11-06T14:08:32.780Z,29.15
2018-11-06T14:13:35.264Z,30.02
2018-11-06T14:18:37.665Z,27.82
2018-11-06T14:23:40.036Z,29.65
2018-11-06T14:28:42.504Z,27.98
2018-11-06T14:33:44.899Z,26.10
2018-11-06T14:38:47.281Z,29.10
2018-11-06T14:43:49.750Z,29.85
2018-11-06T14:48:52.310Z,28.75
2018-11-06T14:53:54.620Z,27.15
2018-11-06T14:58:57.036Z,28.98
2018-11-06T15:03:59.522Z,28.83
2018-11-06T15:09:01.988Z,31.87
2018-11-06T15:14:04.647Z,33.35
2018-11-06T15:19:07.034Z,32.63
2018-11-06T15:24:09.566Z,31.27
2018-11-06T15:29:11.972Z,37.83
2018-11-06T15:34:14.345Z,32.10
2018-11-06T15:39:16.787Z,33.53
2018-11-06T15:44:19.144Z,35.33
2018-11-06T15:49:21.667Z,36.15
2018-11-06T15:54:24.050Z,37.40
2018-11-06T15:59:26.432Z,40.78
2018-11-06T16:04:29.573Z,33.95
2018-11-06T16:09:32.025Z,35.48
2018-11-06T16:14:35.067Z,38.28
2018-11-06T16:19:37.448Z,37.33
2018-11-06T16:24:39.900Z,37.78
2018-11-06T16:29:42.366Z,37.10
2018-11-06T16:34:44.767Z,38.02
2018-11-06T16:39:47.173Z,41.83
2018-11-06T16:44:49.607Z,41.30
2018-11-06T16:49:51.971Z,39.13
2018-11-06T16:54:54.450Z,38.70
2018-11-06T16:59:56.884Z,36.77
2018-11-06T17:04:59.243Z,37.50
2018-11-06T17:10:01.636Z,36.28
2018-11-06T17:15:05.213Z,39.63
2018-11-06T17:20:13.299Z,34.30
2018-11-06T17:25:17.155Z,33.83
2018-11-06T17:30:19.711Z,38.53
2018-11-06T17:35:22.148Z,37.03
2018-11-06T17:40:24.483Z,40.58
2018-11-06T17:45:26.883Z,37.08
2018-11-06T17:50:29.226Z,45.12
2018-11-06T17:55:32.005Z,39.48
2018-11-06T18:00:34.303Z,39.35
2018-11-06T18:05:37.182Z,41.10
2018-11-06T18:10:39.591Z,42.70
2018-11-06T18:15:41.969Z,43.98
2018-11-06T18:20:44.389Z,49.45
2018-11-06T18:25:47.105Z,46.68
2018-11-06T18:30:49.443Z,49.15
2018-11-06T18:35:51.903Z,54.03
2018-11-06T18:40:54.337Z,50.83
2018-11-06T18:45:56.688Z,53.58
2018-11-06T18:50:59.148Z,51.80
2018-11-06T18:56:06.606Z,58.70
2018-11-06T19:01:09.072Z,55.85
2018-11-06T19:06:11.525Z,59.00
2018-11-06T19:11:13.970Z,61.58
2018-11-06T19:16:16.576Z,62.53
2018-11-06T19:21:19.491Z,69.35
2018-11-06T19:26:21.881Z,73.92
2018-11-06T19:31:24.381Z,74.12
2018-11-06T19:36:27.295Z,87.37
2018-11-06T19:41:29.626Z,81.85
2018-11-06T19:46:32.033Z,83.00
2018-11-06T19:51:34.727Z,86.92
2018-11-06T19:56:37.716Z,91.20
2018-11-06T20:01:40.130Z,90.80
2018-11-06T20:06:42.575Z,91.97
2018-11-06T20:11:46.044Z,93.25
2018-11-06T20:16:48.339Z,97.53
2018-11-06T20:21:50.785Z,104.23
2018-11-06T20:26:53.226Z,107.47
2018-11-06T20:32:12.573Z,86.53
2018-11-06T20:37:16.456Z,105.80
2018-11-06T20:42:19.024Z,112.45
2018-11-06T20:47:21.599Z,113.72
2018-11-06T20:52:24.223Z,128.90
2018-11-06T21:02:37.528Z,133.63
2018-11-06T21:07:40.034Z,120.53
2018-11-06T21:12:42.632Z,118.90
2018-11-06T21:17:45.202Z,119.25
2018-11-06T21:22:47.753Z,136.35
2018-11-06T21:27:50.289Z,123.97
2018-11-06T21:32:53.427Z,131.47
2018-11-06T21:37:55.959Z,133.07
2018-11-06T21:42:58.852Z,137.12
2018-11-06T21:48:01.736Z,139.20
2018-11-06T21:53:04.352Z,128.62
2018-11-06T21:58:06.742Z,126.82
2018-11-06T22:03:09.432Z,128.42
2018-11-06T22:08:11.790Z,135.57
2018-11-06T22:13:14.275Z,135.07
2018-11-06T22:18:16.718Z,135.03
2018-11-06T22:23:19.336Z,132.37
2018-11-06T22:28:21.788Z,127.95
2018-11-06T22:33:24.128Z,144.82
2018-11-06T22:38:26.756Z,123.53
2018-11-06T22:43:29.111Z,146.82
2018-11-06T22:48:31.644Z,133.93
2018-11-06T22:58:49.303Z,132.50
2018-11-06T23:03:59.012Z,123.72
2018-11-06T23:09:04.280Z,116.50
2018-11-06T23:19:29.137Z,112.15
2018-11-06T23:30:12.839Z,108.30
2018-11-06T23:40:31.619Z,102.15
2018-11-06T23:45:35.516Z,101.60
2018-11-06T23:50:38.084Z,93.00
2018-11-06T23:55:41.817Z,90.10
